createdAt,value
2016-09-20T00:00:01.118Z,995.41
2016-09-20T00:01:11.105Z,995.41
2016-09-20T00:02:20.783Z,995.4
2016-09-20T00:03:30.783Z,995.41
2016-09-20T00:04:41.074Z,995.4
2016-09-20T00:05:51.057Z,995.43
2016-09-20T00:07:01.330Z,995.39
2016-09-20T00:08:11.617Z,995.41
2016-09-20T00:09:21.612Z,995.38
2016-09-20T00:10:31.893Z,995.41
2016-09-20T00:11:41.888Z,995.34
2016-09-20T00:12:51.865Z,995.38
2016-09-20T00:14:02.169Z,995.42
2016-09-20T00:15:12.455Z,995.38
2016-09-20T00:16:22.432Z,995.4
2016-09-20T00:17:32.409Z,995.36
2016-09-20T00:18:42.716Z,995.33
2016-09-20T00:19:52.707Z,995.31
2016-09-20T00:21:02.998Z,995.36
2016-09-20T00:22:13.284Z,995.33
2016-09-20T00:23:22.992Z,995.37
2016-09-20T00:24:33.000Z,995.37
2016-09-20T00:25:42.986Z,995.39
2016-09-20T00:26:53.292Z,995.4
2016-09-20T00:28:03.300Z,995.36
2016-09-20T00:29:13.590Z,995.35
2016-09-20T00:30:23.570Z,995.35
2016-09-20T00:31:33.570Z,995.39
2016-09-20T00:32:43.252Z,995.4
2016-09-20T00:33:53.557Z,995.4
2016-09-20T00:35:03.844Z,995.4
2016-09-20T00:36:14.116Z,995.4
2016-09-20T00:37:24.108Z,995.43
2016-09-20T00:38:34.404Z,995.35
2016-09-20T00:39:44.726Z,995.37
2016-09-20T00:40:55.042Z,995.4
2016-09-20T00:42:04.711Z,995.36
2016-09-20T00:43:14.996Z,995.35
2016-09-20T00:44:24.990Z,995.48
2016-09-20T00:45:34.985Z,995.34
2016-09-20T00:46:45.281Z,995.41
2016-09-20T00:47:55.570Z,995.39
2016-09-20T00:49:05.545Z,995.39
2016-09-20T00:50:15.532Z,995.35
2016-09-20T00:51:25.206Z,995.34
2016-09-20T00:52:35.497Z,995.32
2016-09-20T00:53:45.792Z,995.29
2016-09-20T00:54:55.760Z,995.35
2016-09-20T00:56:05.754Z,995.48
2016-09-20T00:57:16.049Z,995.34
2016-09-20T00:58:26.341Z,995.39
2016-09-20T00:59:36.638Z,995.29
2016-09-20T01:00:46.623Z,995.33
2016-09-20T01:03:37.617Z,995.33
2016-09-20T01:04:47.612Z,995.37
2016-09-20T01:05:57.595Z,995.46
2016-09-20T01:07:07.891Z,995.39
2016-09-20T01:08:17.858Z,995.44
2016-09-20T01:09:28.169Z,995.38
2016-09-20T01:10:37.845Z,995.42
2016-09-20T01:11:47.828Z,995.42
2016-09-20T01:12:58.130Z,995.39
2016-09-20T01:14:08.107Z,995.44
2016-09-20T01:15:18.398Z,995.43
2016-09-20T01:16:28.699Z,995.44
2016-09-20T01:17:38.996Z,995.47
2016-09-20T01:18:49.279Z,995.46
2016-09-20T01:19:58.935Z,995.51
2016-09-20T01:21:08.598Z,995.48
2016-09-20T01:22:17.956Z,995.51
2016-09-20T01:23:28.239Z,995.54
2016-09-20T01:24:38.211Z,995.57
2016-09-20T01:25:47.882Z,995.51
2016-09-20T01:26:58.164Z,995.58
2016-09-20T01:28:07.831Z,995.56
2016-09-20T01:29:17.812Z,995.57
2016-09-20T01:30:28.110Z,995.55
2016-09-20T01:31:38.116Z,995.57
2016-09-20T01:32:48.134Z,995.56
2016-09-20T01:33:58.420Z,995.6
2016-09-20T01:35:08.705Z,995.63
2016-09-20T01:36:18.987Z,995.62
2016-09-20T01:37:28.956Z,995.63
2016-09-20T01:38:39.228Z,995.57
2016-09-20T01:39:48.902Z,995.59
2016-09-20T01:40:58.885Z,995.61
2016-09-20T01:42:08.856Z,995.62
2016-09-20T01:43:18.837Z,995.62
2016-09-20T01:44:29.114Z,995.77
2016-09-20T01:45:39.402Z,995.66
2016-09-20T01:46:49.693Z,995.69
2016-09-20T01:47:59.667Z,995.71
2016-09-20T01:49:09.356Z,995.72
2016-09-20T01:50:19.018Z,995.75
2016-09-20T01:51:29.304Z,995.74
2016-09-20T01:52:39.286Z,995.71
2016-09-20T01:53:49.574Z,995.68
2016-09-20T01:54:59.549Z,995.72
2016-09-20T01:56:09.832Z,995.75
2016-09-20T01:57:20.124Z,995.78
2016-09-20T01:58:30.109Z,995.76
2016-09-20T01:59:40.401Z,995.78
2016-09-20T02:00:50.373Z,995.78
2016-09-20T02:02:00.335Z,995.77
2016-09-20T02:03:10.677Z,995.77
2016-09-20T02:04:20.348Z,995.78
2016-09-20T02:05:30.020Z,995.74
2016-09-20T02:06:39.695Z,995.78
2016-09-20T02:07:49.986Z,995.77
2016-09-20T02:09:00.286Z,995.83
2016-09-20T02:10:10.566Z,995.84
2016-09-20T02:11:20.244Z,995.84
2016-09-20T02:12:30.535Z,995.84
2016-09-20T02:13:40.827Z,995.82
2016-09-20T02:14:50.503Z,995.8
2016-09-20T02:16:00.805Z,995.81
2016-09-20T02:17:11.097Z,995.85
2016-09-20T02:18:21.381Z,995.87
2016-09-20T02:19:31.670Z,995.81
2016-09-20T02:20:41.952Z,995.83
2016-09-20T02:21:52.269Z,995.85
2016-09-20T02:23:02.567Z,995.83
2016-09-20T02:24:12.539Z,995.82
2016-09-20T02:25:21.618Z,995.83
2016-09-20T02:26:31.286Z,995.83
2016-09-20T02:27:41.277Z,995.83
2016-09-20T02:28:51.583Z,995.83
2016-09-20T02:30:01.557Z,995.81
2016-09-20T02:31:11.549Z,995.9
2016-09-20T02:32:21.529Z,995.89
2016-09-20T02:33:31.520Z,995.82
2016-09-20T02:34:41.802Z,995.83
2016-09-20T02:35:51.786Z,995.85
2016-09-20T02:37:01.795Z,995.86
2016-09-20T02:38:12.088Z,995.99
2016-09-20T02:39:22.054Z,995.9
2016-09-20T02:40:32.331Z,995.87
2016-09-20T02:41:42.004Z,995.93
2016-09-20T02:42:51.981Z,995.99
2016-09-20T02:44:01.954Z,995.96
2016-09-20T02:45:11.935Z,995.98
2016-09-20T02:46:22.234Z,995.93
2016-09-20T02:47:32.536Z,995.91
2016-09-20T02:48:42.500Z,995.98
2016-09-20T02:49:52.509Z,996.04
2016-09-20T02:51:02.492Z,996.02
2016-09-20T02:52:12.774Z,996.02
2016-09-20T02:53:22.759Z,996.01
2016-09-20T02:54:32.431Z,996.05
2016-09-20T02:55:42.399Z,996.04
2016-09-20T02:56:52.689Z,996.06
2016-09-20T02:58:02.973Z,996.09
2016-09-20T02:59:13.258Z,996.07
2016-09-20T03:00:22.930Z,996.01
2016-09-20T03:31:58.330Z,996.19
2016-09-20T03:33:08.618Z,996.16
2016-09-20T03:34:18.599Z,996.18
2016-09-20T03:35:28.878Z,996.16
2016-09-20T03:36:39.167Z,996.16
2016-09-20T03:37:49.144Z,996.18
2016-09-20T03:38:59.435Z,996.16
2016-09-20T03:40:09.426Z,996.2
2016-09-20T03:41:19.076Z,996.14
2016-09-20T03:42:29.356Z,996.13
2016-09-20T03:43:39.337Z,996.17
2016-09-20T03:44:49.321Z,996.24
2016-09-20T03:45:59.613Z,996.25
2016-09-20T03:47:09.588Z,996.29
2016-09-20T03:48:19.558Z,996.32
2016-09-20T03:49:29.536Z,996.32
2016-09-20T03:50:39.825Z,996.38
2016-09-20T03:51:49.482Z,996.35
2016-09-20T03:52:59.459Z,996.34
2016-09-20T03:54:08.815Z,996.37
2016-09-20T03:55:19.097Z,996.38
2016-09-20T03:56:29.402Z,996.38
2016-09-20T03:57:39.679Z,996.36
2016-09-20T03:58:49.651Z,996.36
2016-09-20T03:59:59.929Z,996.38
2016-09-20T04:01:10.215Z,996.4
2016-09-20T04:02:20.187Z,996.41
2016-09-20T04:03:29.858Z,996.37
2016-09-20T04:04:39.839Z,996.34
2016-09-20T04:05:49.501Z,996.36
2016-09-20T04:06:59.173Z,996.45
2016-09-20T04:08:09.154Z,996.36
2016-09-20T04:09:19.456Z,996.35
2016-09-20T04:10:29.429Z,996.45
2016-09-20T04:11:39.405Z,996.45
2016-09-20T04:12:49.385Z,996.44
2016-09-20T04:13:59.678Z,996.39
2016-09-20T04:15:09.650Z,996.38
2016-09-20T04:16:19.012Z,996.42
2016-09-20T04:17:28.713Z,996.38
2016-09-20T04:18:38.989Z,996.39
2016-09-20T04:19:48.981Z,996.41
2016-09-20T04:20:58.958Z,996.46
2016-09-20T04:22:08.635Z,996.4
2016-09-20T04:23:18.609Z,996.45
2016-09-20T04:24:28.901Z,996.45
2016-09-20T04:25:39.190Z,996.41
2016-09-20T04:26:49.175Z,996.42
2016-09-20T04:27:59.150Z,996.42
2016-09-20T04:29:09.130Z,996.41
2016-09-20T04:30:19.116Z,996.44
2016-09-20T04:31:29.403Z,996.43
2016-09-20T04:32:39.075Z,996.43
2016-09-20T04:33:49.071Z,996.44
2016-09-20T04:34:59.051Z,996.47
2016-09-20T04:36:09.337Z,996.57
2016-09-20T04:37:19.612Z,996.5
2016-09-20T04:38:29.590Z,996.5
2016-09-20T04:39:39.579Z,996.53
2016-09-20T04:40:49.556Z,996.47
2016-09-20T04:41:59.563Z,996.54
2016-09-20T04:43:09.546Z,996.59
2016-09-20T04:44:19.837Z,996.56
2016-09-20T04:45:29.814Z,996.54
2016-09-20T04:46:40.116Z,996.55
2016-09-20T04:47:50.403Z,996.58
2016-09-20T04:50:10.295Z,996.62
2016-09-20T04:51:20.277Z,996.7
2016-09-20T04:52:30.578Z,996.68
2016-09-20T04:53:40.556Z,996.66
2016-09-20T04:54:50.233Z,996.7
2016-09-20T04:56:00.527Z,996.67
2016-09-20T04:57:10.497Z,996.67
2016-09-20T04:58:20.479Z,996.72
2016-09-20T04:59:30.149Z,996.72
2016-09-20T05:00:40.137Z,996.73
2016-09-20T05:01:50.422Z,996.71
2016-09-20T05:03:00.104Z,996.73
2016-09-20T05:04:10.087Z,996.74
2016-09-20T05:05:20.395Z,996.85
2016-09-20T05:06:30.680Z,996.76
2016-09-20T05:07:40.648Z,996.8
2016-09-20T05:08:50.629Z,996.82
2016-09-20T05:10:00.921Z,996.81
2016-09-20T05:11:10.897Z,996.78
2016-09-20T05:12:20.884Z,996.84
2016-09-20T05:13:30.875Z,996.85
2016-09-20T05:14:40.548Z,996.85
2016-09-20T05:15:50.530Z,996.82
2016-09-20T05:17:00.810Z,996.81
2016-09-20T05:18:09.856Z,996.85
2016-09-20T05:19:19.848Z,996.86
2016-09-20T05:20:30.145Z,996.87
2016-09-20T05:21:40.426Z,996.83
2016-09-20T05:22:50.704Z,996.84
2016-09-20T05:24:00.996Z,996.93
2016-09-20T05:25:10.961Z,996.9
2016-09-20T05:26:21.239Z,996.83
2016-09-20T05:27:31.220Z,996.86
2016-09-20T05:28:40.591Z,996.88
2016-09-20T05:29:50.580Z,996.87
2016-09-20T05:31:00.586Z,996.89
2016-09-20T05:32:10.247Z,996.91
2016-09-20T05:33:20.237Z,996.94
2016-09-20T05:34:30.528Z,996.92
2016-09-20T05:35:40.493Z,996.94
2016-09-20T05:36:50.164Z,996.87
2016-09-20T05:38:00.147Z,996.97
2016-09-20T05:39:10.127Z,996.96
2016-09-20T05:40:20.110Z,996.99
2016-09-20T05:41:30.395Z,996.95
2016-09-20T05:42:40.673Z,996.96
2016-09-20T05:43:50.950Z,997.01
2016-09-20T05:45:01.238Z,997.01
2016-09-20T05:46:10.907Z,996.97
2016-09-20T05:47:20.274Z,997.02
2016-09-20T05:48:30.565Z,997.01
2016-09-20T05:49:40.534Z,997.02
2016-09-20T05:50:50.819Z,997.04
2016-09-20T05:52:00.477Z,997
2016-09-20T05:53:10.148Z,997.03
2016-09-20T05:54:20.126Z,997
2016-09-20T05:55:30.345Z,997.01
2016-09-20T05:56:40.013Z,997.02
2016-09-20T05:57:49.991Z,997.01
2016-09-20T05:58:59.649Z,996.98
2016-09-20T06:00:09.312Z,997.02
2016-09-20T06:01:19.292Z,997.05
2016-09-20T06:02:29.258Z,997.01
2016-09-20T06:03:38.944Z,997.02
2016-09-20T06:04:49.240Z,997.01
2016-09-20T06:05:59.538Z,997.06
2016-09-20T06:07:09.525Z,997.02
2016-09-20T06:08:19.195Z,997.07
2016-09-20T06:09:29.177Z,997.15
2016-09-20T06:10:39.180Z,997.17
2016-09-20T06:11:49.472Z,997.13
2016-09-20T06:12:59.453Z,997.17
2016-09-20T06:14:09.746Z,997.19
2016-09-20T06:15:20.041Z,997.23
2016-09-20T06:16:30.325Z,997.21
2016-09-20T06:17:40.324Z,997.23
2016-09-20T06:18:50.601Z,997.22
2016-09-20T06:20:00.904Z,997.2
2016-09-20T06:21:11.196Z,997.23
2016-09-20T06:22:21.503Z,997.21
2016-09-20T06:23:31.864Z,997.22
2016-09-20T06:24:41.841Z,997.27
2016-09-20T06:25:51.821Z,997.29
2016-09-20T06:27:02.111Z,997.27
2016-09-20T06:28:12.402Z,997.23
2016-09-20T06:29:22.702Z,997.25
2016-09-20T06:30:32.373Z,997.26
2016-09-20T06:31:42.661Z,997.29
2016-09-20T06:32:52.323Z,997.32
2016-09-20T06:34:02.313Z,997.29
2016-09-20T06:35:12.286Z,997.3
2016-09-20T06:36:22.276Z,997.37
2016-09-20T06:37:31.937Z,997.32
2016-09-20T06:38:42.251Z,997.34
2016-09-20T06:39:52.237Z,997.36
2016-09-20T06:41:01.919Z,997.34
2016-09-20T06:42:12.219Z,997.34
2016-09-20T06:43:22.512Z,997.35
2016-09-20T06:44:32.184Z,997.33
2016-09-20T06:45:42.579Z,997.41
2016-09-20T06:46:52.867Z,997.4
2016-09-20T06:48:03.239Z,997.38
2016-09-20T06:49:13.534Z,997.4
2016-09-20T06:50:23.616Z,997.42
2016-09-20T06:51:33.925Z,997.41
2016-09-20T06:52:43.948Z,997.42
2016-09-20T06:53:53.944Z,997.44
2016-09-20T06:55:04.249Z,997.43
2016-09-20T06:56:14.195Z,997.44
2016-09-20T06:57:23.930Z,997.39
2016-09-20T06:58:34.220Z,997.38
2016-09-20T06:59:44.511Z,997.41
2016-09-20T07:00:54.798Z,997.41
2016-09-20T07:02:05.103Z,997.45
2016-09-20T07:03:15.408Z,997.52
2016-09-20T07:04:25.704Z,997.51
2016-09-20T07:05:35.704Z,997.48
2016-09-20T07:06:45.066Z,997.5
2016-09-20T07:07:54.737Z,997.51
2016-09-20T07:09:04.408Z,997.52
2016-09-20T07:10:14.392Z,997.57
2016-09-20T07:11:24.692Z,997.58
2016-09-20T07:12:34.991Z,997.49
2016-09-20T07:13:44.655Z,997.53
2016-09-20T07:14:54.641Z,997.52
2016-09-20T07:16:04.934Z,997.55
2016-09-20T07:17:15.215Z,997.54
2016-09-20T07:18:24.892Z,997.56
2016-09-20T07:19:35.179Z,997.56
2016-09-20T07:20:45.460Z,997.59
2016-09-20T07:21:55.748Z,997.59
2016-09-20T07:23:06.035Z,997.6
2016-09-20T07:24:16.346Z,997.61
2016-09-20T07:25:26.633Z,997.63
2016-09-20T07:26:36.925Z,997.63
2016-09-20T07:27:47.212Z,997.62
2016-09-20T07:28:56.868Z,997.56
2016-09-20T07:30:07.175Z,997.61
2016-09-20T07:31:17.162Z,997.64
2016-09-20T07:32:27.443Z,997.67
2016-09-20T07:33:37.419Z,997.64
2016-09-20T07:34:47.401Z,997.64
2016-09-20T07:35:57.713Z,997.61
2016-09-20T07:37:08.002Z,997.66
2016-09-20T07:38:18.298Z,997.71
2016-09-20T07:39:28.594Z,997.71
2016-09-20T07:40:38.881Z,997.7
2016-09-20T07:41:49.174Z,997.72
2016-09-20T07:42:59.469Z,997.7
2016-09-20T07:44:09.762Z,997.76
2016-09-20T07:45:20.069Z,997.74
2016-09-20T07:46:30.674Z,997.67
2016-09-20T07:47:40.355Z,997.68
2016-09-20T07:48:50.654Z,997.66
2016-09-20T07:50:00.639Z,997.68
2016-09-20T07:51:10.622Z,997.74
2016-09-20T07:52:20.907Z,997.78
2016-09-20T07:53:30.588Z,997.75
2016-09-20T07:54:40.875Z,997.74
2016-09-20T07:55:51.222Z,997.79
2016-09-20T07:57:01.450Z,997.8
2016-09-20T07:58:11.745Z,997.8
2016-09-20T07:59:22.072Z,997.81
2016-09-20T08:00:32.400Z,997.83
2016-09-20T08:01:42.695Z,997.84
2016-09-20T08:02:52.684Z,997.81
2016-09-20T08:04:02.991Z,997.87
2016-09-20T08:05:13.266Z,997.8
2016-09-20T08:06:23.268Z,997.84
2016-09-20T08:07:33.550Z,997.84
2016-09-20T08:08:43.861Z,997.8
2016-09-20T08:09:54.166Z,997.82
2016-09-20T08:11:04.467Z,997.85
2016-09-20T08:12:14.757Z,997.93
2016-09-20T08:13:24.442Z,997.89
2016-09-20T08:14:34.744Z,997.83
2016-09-20T08:15:45.025Z,997.92
2016-09-20T08:16:55.021Z,997.85
2016-09-20T08:18:04.994Z,997.94
2016-09-20T08:19:14.966Z,997.89
2016-09-20T08:20:25.258Z,997.92
2016-09-20T08:21:35.563Z,997.93
2016-09-20T08:22:45.852Z,997.93
2016-09-20T08:23:55.847Z,997.92
2016-09-20T08:25:05.834Z,997.92
2016-09-20T08:26:15.507Z,997.9
2016-09-20T08:27:25.790Z,997.86
2016-09-20T08:28:35.468Z,997.94
2016-09-20T08:29:45.766Z,997.89
2016-09-20T08:30:55.435Z,997.9
2016-09-20T08:32:05.416Z,997.87
2016-09-20T08:33:15.423Z,997.91
2016-09-20T08:34:25.100Z,997.91
2016-09-20T08:35:35.443Z,997.83
2016-09-20T08:36:45.736Z,997.88
2016-09-20T08:37:56.028Z,997.86
2016-09-20T08:39:06.322Z,997.84
2016-09-20T08:40:16.625Z,997.87
2016-09-20T08:41:26.928Z,997.87
2016-09-20T08:42:36.919Z,997.87
2016-09-20T08:43:46.601Z,997.94
2016-09-20T08:44:56.597Z,997.87
2016-09-20T08:46:06.576Z,997.89
2016-09-20T08:47:16.572Z,997.91
2016-09-20T08:48:26.872Z,997.82
2016-09-20T08:49:37.160Z,997.85
2016-09-20T08:50:47.160Z,997.86
2016-09-20T08:51:57.137Z,997.82
2016-09-20T08:53:07.443Z,997.87
2016-09-20T08:54:17.421Z,997.86
2016-09-20T08:55:27.729Z,997.9
2016-09-20T08:56:38.029Z,997.92
2016-09-20T08:57:48.326Z,997.91
2016-09-20T08:58:57.998Z,997.86
2016-09-20T09:00:08.290Z,997.89
2016-09-20T09:01:17.961Z,997.94
2016-09-20T09:02:28.251Z,997.9
2016-09-20T09:03:38.549Z,997.93
2016-09-20T09:04:48.532Z,997.98
2016-09-20T09:05:58.518Z,997.92
2016-09-20T09:07:08.820Z,997.9
2016-09-20T09:08:19.112Z,997.93
2016-09-20T09:09:29.419Z,997.98
2016-09-20T09:10:39.409Z,997.98
2016-09-20T09:11:49.727Z,997.9
2016-09-20T09:13:00.063Z,997.89
2016-09-20T09:14:10.366Z,997.89
2016-09-20T09:15:20.341Z,997.89
2016-09-20T09:16:30.634Z,997.83
2016-09-20T09:17:40.936Z,997.81
2016-09-20T09:18:50.922Z,997.81
2016-09-20T09:20:01.213Z,997.81
2016-09-20T09:21:11.515Z,997.77
2016-09-20T09:22:21.816Z,997.75
2016-09-20T09:23:32.108Z,997.75
2016-09-20T09:24:42.097Z,997.8
2016-09-20T09:25:52.412Z,997.77
2016-09-20T09:27:02.714Z,997.79
2016-09-20T09:28:13.001Z,997.86
2016-09-20T09:29:23.301Z,997.83
2016-09-20T09:30:33.587Z,997.83
2016-09-20T09:31:43.871Z,997.74
2016-09-20T09:32:54.147Z,997.65
2016-09-20T09:34:04.439Z,997.73
2016-09-20T09:35:14.773Z,997.68
2016-09-20T09:36:24.759Z,997.73
2016-09-20T09:37:35.066Z,997.75
2016-09-20T09:38:45.357Z,997.73
2016-09-20T09:39:55.658Z,997.72
2016-09-20T09:41:05.644Z,997.79
2016-09-20T09:42:15.632Z,997.81
2016-09-20T09:43:25.937Z,997.72
2016-09-20T09:44:35.917Z,997.73
2016-09-20T09:45:46.202Z,997.69
2016-09-20T09:46:56.525Z,997.7
2016-09-20T09:48:06.819Z,997.68
2016-09-20T09:49:16.811Z,997.79
2016-09-20T09:50:27.097Z,997.73
2016-09-20T09:51:36.768Z,997.69
2016-09-20T09:52:46.756Z,997.72
2016-09-20T09:53:57.055Z,997.68
2016-09-20T09:55:07.350Z,997.68
2016-09-20T09:56:17.666Z,997.61
2016-09-20T09:57:27.658Z,997.64
2016-09-20T09:58:37.955Z,997.65
2016-09-20T09:59:48.417Z,997.61
2016-09-20T10:00:58.927Z,997.59
2016-09-20T10:02:08.901Z,997.59
2016-09-20T10:03:19.218Z,997.64
2016-09-20T10:04:29.218Z,997.67
2016-09-20T10:05:39.198Z,997.63
2016-09-20T10:06:48.869Z,997.7
2016-09-20T10:07:59.214Z,997.67
2016-09-20T10:09:09.543Z,997.63
2016-09-20T10:10:19.838Z,997.59
2016-09-20T10:11:30.145Z,997.56
2016-09-20T10:12:40.125Z,997.59
2016-09-20T10:13:50.123Z,997.46
2016-09-20T10:15:00.408Z,997.56
2016-09-20T10:16:10.699Z,997.56
2016-09-20T10:17:20.382Z,997.53
2016-09-20T10:18:30.360Z,997.58
2016-09-20T10:19:40.655Z,997.59
2016-09-20T10:20:50.649Z,997.64
2016-09-20T10:22:00.932Z,997.61
2016-09-20T10:23:11.215Z,997.64
2016-09-20T10:24:21.526Z,997.59
2016-09-20T10:25:31.828Z,997.6
2016-09-20T10:26:42.112Z,997.54
2016-09-20T10:27:52.398Z,997.57
2016-09-20T10:29:02.373Z,997.56
2016-09-20T10:30:12.351Z,997.59
2016-09-20T10:31:22.341Z,997.54
2016-09-20T10:32:32.634Z,997.48
2016-09-20T10:33:42.925Z,997.42
2016-09-20T10:34:53.219Z,997.5
2016-09-20T10:36:03.198Z,997.48
2016-09-20T10:37:13.550Z,997.51
2016-09-20T10:38:23.557Z,997.49
2016-09-20T10:39:33.247Z,997.48
2016-09-20T10:40:43.539Z,997.49
2016-09-20T10:41:53.822Z,997.48
2016-09-20T10:43:04.392Z,997.5
2016-09-20T10:44:14.400Z,997.52
2016-09-20T10:45:24.699Z,997.52
2016-09-20T10:46:34.696Z,997.52
2016-09-20T10:47:44.981Z,997.4
2016-09-20T10:48:55.281Z,997.44
2016-09-20T10:50:05.570Z,997.47
2016-09-20T10:51:15.252Z,997.53
2016-09-20T10:52:25.240Z,997.56
2016-09-20T10:53:35.549Z,997.58
2016-09-20T10:54:45.852Z,997.58
2016-09-20T10:55:56.147Z,997.52
2016-09-20T10:57:06.454Z,997.49
2016-09-20T10:58:16.436Z,997.48
2016-09-20T10:59:26.727Z,997.58
2016-09-20T11:00:37.013Z,997.56
2016-09-20T11:01:46.690Z,997.56
2016-09-20T11:02:56.980Z,997.5
2016-09-20T11:04:07.296Z,997.51
2016-09-20T11:05:17.580Z,997.5
2016-09-20T11:06:27.883Z,997.54
2016-09-20T11:07:38.170Z,997.47
2016-09-20T11:08:48.461Z,997.49
2016-09-20T11:09:58.789Z,997.48
2016-09-20T11:11:08.781Z,997.44
2016-09-20T11:12:19.103Z,997.46
2016-09-20T11:13:29.394Z,997.4
2016-09-20T11:14:39.705Z,997.43
2016-09-20T11:15:50.013Z,997.46
2016-09-20T11:17:00.009Z,997.47
2016-09-20T11:18:10.304Z,997.47
2016-09-20T11:19:20.632Z,997.47
2016-09-20T11:20:30.925Z,997.48
2016-09-20T11:21:40.911Z,997.63
2016-09-20T11:22:51.212Z,997.46
2016-09-20T11:24:01.515Z,997.51
2016-09-20T11:25:11.816Z,997.52
2016-09-20T11:26:22.106Z,997.46
2016-09-20T11:27:32.404Z,997.53
2016-09-20T11:28:42.402Z,997.49
2016-09-20T11:29:52.722Z,997.48
2016-09-20T11:31:03.024Z,997.44
2016-09-20T11:32:13.324Z,997.52
2016-09-20T11:33:23.309Z,997.47
2016-09-20T11:34:32.995Z,997.5
2016-09-20T11:35:43.329Z,997.49
2016-09-20T11:36:53.635Z,997.48
2016-09-20T11:38:03.930Z,997.43
2016-09-20T11:39:13.918Z,997.46
2016-09-20T11:40:24.229Z,997.44
2016-09-20T11:41:34.541Z,997.44
2016-09-20T11:42:44.846Z,997.47
2016-09-20T11:43:54.857Z,997.41
2016-09-20T11:45:05.155Z,997.47
2016-09-20T11:46:15.144Z,997.49
2016-09-20T11:47:25.430Z,997.43
2016-09-20T11:48:35.724Z,997.42
2016-09-20T11:49:45.708Z,997.43
2016-09-20T11:50:56.018Z,997.41
2016-09-20T11:52:06.324Z,997.41
2016-09-20T11:53:16.627Z,997.37
2016-09-20T11:54:26.613Z,997.35
2016-09-20T11:55:36.938Z,997.4
2016-09-20T11:56:47.233Z,997.38
2016-09-20T11:57:57.218Z,997.36
2016-09-20T11:59:07.221Z,997.35
2016-09-20T12:00:17.527Z,997.33
2016-09-20T12:01:27.525Z,997.35
2016-09-20T12:02:37.526Z,997.3
2016-09-20T12:03:47.817Z,997.33
2016-09-20T12:04:57.501Z,997.33
2016-09-20T12:06:07.801Z,997.24
2016-09-20T12:07:18.098Z,997.28
2016-09-20T12:08:28.379Z,997.32
2016-09-20T12:09:38.672Z,997.3
2016-09-20T12:10:48.662Z,997.3
2016-09-20T12:11:58.989Z,997.25
2016-09-20T12:13:09.285Z,997.32
2016-09-20T12:14:19.273Z,997.28
2016-09-20T12:15:29.258Z,997.34
2016-09-20T12:16:39.571Z,997.29
2016-09-20T12:17:49.910Z,997.33
2016-09-20T12:19:00.220Z,997.32
2016-09-20T12:20:10.512Z,997.27
2016-09-20T12:21:20.811Z,997.24
2016-09-20T12:22:31.118Z,997.23
2016-09-20T12:23:41.422Z,997.15
2016-09-20T12:24:51.388Z,997.22
2016-09-20T12:26:01.688Z,997.22
2016-09-20T12:27:11.690Z,997.18
2016-09-20T12:28:21.989Z,997.21
2016-09-20T12:29:32.302Z,997.26
2016-09-20T12:30:42.596Z,997.16
2016-09-20T12:31:52.902Z,997.17
2016-09-20T12:33:03.209Z,997.19
2016-09-20T12:34:13.200Z,997.22
2016-09-20T12:35:23.219Z,997.23
2016-09-20T12:36:33.220Z,997.22
2016-09-20T12:37:43.512Z,997.27
2016-09-20T12:38:53.798Z,997.22
2016-09-20T12:40:04.096Z,997.26
2016-09-20T12:41:14.407Z,997.24
2016-09-20T12:42:24.395Z,997.24
2016-09-20T12:43:34.708Z,997.22
2016-09-20T12:44:45.006Z,997.17
2016-09-20T12:45:55.312Z,997.22
2016-09-20T12:47:05.614Z,997.23
2016-09-20T12:48:15.603Z,997.22
2016-09-20T12:49:25.593Z,997.24
2016-09-20T12:50:35.879Z,997.29
2016-09-20T12:51:45.868Z,997.3
2016-09-20T12:52:56.193Z,997.23
2016-09-20T12:54:05.880Z,997.27
2016-09-20T12:55:15.872Z,997.28
2016-09-20T12:56:26.149Z,997.27
2016-09-20T12:57:36.446Z,997.27
2016-09-20T12:58:46.444Z,997.24
2016-09-20T12:59:56.444Z,997.27
2016-09-20T13:01:06.425Z,997.25
2016-09-20T13:02:16.441Z,997.32
2016-09-20T13:03:26.733Z,997.3
2016-09-20T13:04:36.726Z,997.32
2016-09-20T13:05:47.013Z,997.35
2016-09-20T13:06:57.337Z,997.35
2016-09-20T13:08:07.881Z,997.3
2016-09-20T13:09:18.187Z,997.3
2016-09-20T13:10:27.867Z,997.29
2016-09-20T13:11:38.169Z,997.32
2016-09-20T13:12:48.485Z,997.4
2016-09-20T13:13:58.853Z,997.32
2016-09-20T13:15:08.880Z,997.29
2016-09-20T13:16:19.174Z,997.31
2016-09-20T13:17:29.484Z,997.31
2016-09-20T13:18:39.465Z,997.26
2016-09-20T13:19:49.135Z,997.22
2016-09-20T13:20:58.822Z,997.2
2016-09-20T13:22:09.131Z,997.21
2016-09-20T13:23:19.432Z,997.24
2016-09-20T13:24:29.399Z,997.22
2016-09-20T13:25:39.379Z,997.26
2016-09-20T13:26:49.678Z,997.18
2016-09-20T13:27:59.688Z,997.15
2016-09-20T13:29:09.986Z,997.19
2016-09-20T13:30:20.296Z,997.14
2016-09-20T13:31:30.314Z,997.09
2016-09-20T13:32:40.006Z,997.13
2016-09-20T13:33:50.005Z,997.15
2016-09-20T13:35:00.303Z,997.11
2016-09-20T13:36:10.305Z,997.08
2016-09-20T13:37:20.531Z,997.15
2016-09-20T13:38:30.847Z,997.12
2016-09-20T13:39:40.825Z,997.17
2016-09-20T13:40:51.145Z,997.12
2016-09-20T13:42:01.154Z,997.11
2016-09-20T13:43:11.449Z,997.09
2016-09-20T13:44:21.453Z,997.14
2016-09-20T13:45:31.453Z,997.16
2016-09-20T13:46:41.759Z,997.19
2016-09-20T13:47:51.760Z,997.13
2016-09-20T13:49:01.748Z,997.19
2016-09-20T13:50:11.740Z,997.18
2016-09-20T13:51:21.751Z,997.13
2016-09-20T13:52:32.055Z,997.17
2016-09-20T13:53:42.037Z,997.15
2016-09-20T13:54:52.562Z,997.17
2016-09-20T13:56:02.879Z,997.23
2016-09-20T13:57:13.176Z,997.19
2016-09-20T13:58:23.183Z,997.21
2016-09-20T13:59:33.164Z,997.2
2016-09-20T14:00:43.163Z,997.2
2016-09-20T14:01:53.163Z,997.15
2016-09-20T14:03:03.132Z,997.25
2016-09-20T14:04:13.121Z,997.28
2016-09-20T14:05:23.425Z,997.2
2016-09-20T14:06:33.414Z,997.22
2016-09-20T14:07:43.711Z,997.28
2016-09-20T14:08:54.023Z,997.26
2016-09-20T14:10:03.395Z,997.28
2016-09-20T14:11:13.705Z,997.25
2016-09-20T14:12:24.009Z,997.31
2016-09-20T14:13:34.005Z,997.31
2016-09-20T14:14:44.357Z,997.29
2016-09-20T14:15:54.340Z,997.28
2016-09-20T14:17:04.335Z,997.28
2016-09-20T14:18:14.627Z,997.42
2016-09-20T14:19:24.935Z,997.36
2016-09-20T14:20:34.924Z,997.33
2016-09-20T14:21:45.234Z,997.29
2016-09-20T14:22:55.545Z,997.23
2016-09-20T14:24:05.250Z,997.3
2016-09-20T14:25:15.597Z,997.4
2016-09-20T14:26:25.275Z,997.4
2016-09-20T14:27:35.591Z,997.34
2016-09-20T14:28:45.904Z,997.38
2016-09-20T14:29:56.217Z,997.4
2016-09-20T14:31:06.203Z,997.39
2016-09-20T14:32:16.490Z,997.4
2016-09-20T14:33:26.509Z,997.42
2016-09-20T14:34:36.809Z,997.46
2016-09-20T14:35:46.497Z,997.48
2016-09-20T14:36:56.785Z,997.41
2016-09-20T14:38:06.483Z,997.39
2016-09-20T14:39:16.480Z,997.41
2016-09-20T14:40:26.890Z,997.42
2016-09-20T14:41:36.886Z,997.39
2016-09-20T14:42:46.933Z,997.31
2016-09-20T14:43:59.742Z,997.39
2016-09-20T14:45:10.058Z,997.41
2016-09-20T14:46:20.357Z,997.39
2016-09-20T14:47:30.362Z,997.39
2016-09-20T14:48:39.734Z,997.4
2016-09-20T14:49:49.765Z,997.42
2016-09-20T14:50:59.773Z,997.35
2016-09-20T14:52:09.482Z,997.36
2016-09-20T14:53:18.864Z,997.38
2016-09-20T14:54:28.872Z,997.35
2016-09-20T14:55:39.177Z,997.32
2016-09-20T14:56:49.488Z,997.38
2016-09-20T14:57:59.488Z,997.4
2016-09-20T14:59:09.463Z,997.38
2016-09-20T15:00:19.176Z,997.42
2016-09-20T15:01:29.169Z,997.44
2016-09-20T15:02:39.187Z,997.46
2016-09-20T15:03:49.177Z,997.46
2016-09-20T15:04:59.481Z,997.47
2016-09-20T15:06:09.478Z,997.46
2016-09-20T15:07:19.482Z,997.44
2016-09-20T15:08:29.785Z,997.47
2016-09-20T15:09:39.784Z,997.47